1CO3 weather

Bellmore Farms Airport
Nunn, Colorado, United States

Public forecast

Using degrees Fahrenheit for public forecast. Weather courtesy of forecast.io.

METAR (pilot weather report)

Closest report is Greeley–Weld County Airport, 17.7 nm (32.8 km) SSE. Retrieved 2019/08/24 07:56 UTC (54 minutes ago):

KGXY 240756Z AUTO 11014KT 10SM 16/13 A3009 RMK AO2 SLP144 T01560128 $

TAF (pilot weather forecast)

Closest forecast is Cheyenne Regional Jerry Olson Field, 27.1 nm (50.2 km) N. Retrieved 2019/08/24 06:00 UTC (3 hours ago):

TAF COR KCYS 240559Z 2406/2506 11006KT P6SM BKN007 OVC012 FM240900 20008KT 4SM BR OVC007 FM241500 30012G22KT P6SM SKC FM250100 20009KT P6SM SKC